sensor_id;sensor_type;location;lat;lon;timestamp;P1;durP1;ratioP1;P2;durP2;ratioP2
16579;SDS011;8402;51.466;6.806;2023-06-10T00:00:26;9.70;;;7.57;;
16579;SDS011;8402;51.466;6.806;2023-06-10T00:02:58;13.32;;;8.15;;
16579;SDS011;8402;51.466;6.806;2023-06-10T00:05:28;12.43;;;8.23;;
16579;SDS011;8402;51.466;6.806;2023-06-10T00:07:59;9.52;;;8.23;;
16579;SDS011;8402;51.466;6.806;2023-06-10T00:10:36;9.88;;;7.93;;
16579;SDS011;8402;51.466;6.806;2023-06-10T00:13:07;11.35;;;7.80;;
16579;SDS011;8402;51.466;6.806;2023-06-10T00:15:38;10.27;;;7.75;;
16579;SDS011;8402;51.466;6.806;2023-06-10T00:18:10;9.27;;;7.53;;
16579;SDS011;8402;51.466;6.806;2023-06-10T00:20:40;14.15;;;8.55;;
16579;SDS011;8402;51.466;6.806;2023-06-10T00:23:10;9.00;;;7.38;;
16579;SDS011;8402;51.466;6.806;2023-06-10T00:25:43;9.23;;;8.07;;
16579;SDS011;8402;51.466;6.806;2023-06-10T00:28:13;11.63;;;8.00;;
16579;SDS011;8402;51.466;6.806;2023-06-10T00:30:43;12.75;;;8.25;;
16579;SDS011;8402;51.466;6.806;2023-06-10T00:33:13;10.30;;;8.23;;
16579;SDS011;8402;51.466;6.806;2023-06-10T00:35:43;11.63;;;7.82;;
16579;SDS011;8402;51.466;6.806;2023-06-10T00:38:13;14.27;;;8.10;;
16579;SDS011;8402;51.466;6.806;2023-06-10T00:40:46;9.43;;;7.68;;
16579;SDS011;8402;51.466;6.806;2023-06-10T00:43:16;10.70;;;7.95;;
16579;SDS011;8402;51.466;6.806;2023-06-10T00:45:46;13.40;;;7.60;;
16579;SDS011;8402;51.466;6.806;2023-06-10T00:48:16;10.80;;;8.55;;
16579;SDS011;8402;51.466;6.806;2023-06-10T00:50:47;9.05;;;8.07;;
16579;SDS011;8402;51.466;6.806;2023-06-10T00:53:17;10.85;;;7.78;;
16579;SDS011;8402;51.466;6.806;2023-06-10T00:55:51;9.30;;;7.60;;
16579;SDS011;8402;51.466;6.806;2023-06-10T00:58:21;12.10;;;8.38;;
16579;SDS011;8402;51.466;6.806;2023-06-10T01:00:52;10.75;;;7.60;;
16579;SDS011;8402;51.466;6.806;2023-06-10T01:03:22;10.07;;;7.85;;
16579;SDS011;8402;51.466;6.806;2023-06-10T01:05:53;9.80;;;8.00;;
16579;SDS011;8402;51.466;6.806;2023-06-10T01:08:32;10.50;;;8.27;;
16579;SDS011;8402;51.466;6.806;2023-06-10T01:11:12;9.52;;;7.47;;
16579;SDS011;8402;51.466;6.806;2023-06-10T01:13:47;10.93;;;8.02;;
16579;SDS011;8402;51.466;6.806;2023-06-10T01:16:21;9.93;;;8.13;;
16579;SDS011;8402;51.466;6.806;2023-06-10T01:18:52;9.43;;;7.63;;
16579;SDS011;8402;51.466;6.806;2023-06-10T01:21:24;11.18;;;7.90;;
16579;SDS011;8402;51.466;6.806;2023-06-10T01:23:54;11.18;;;7.97;;
16579;SDS011;8402;51.466;6.806;2023-06-10T01:26:28;12.32;;;8.38;;
16579;SDS011;8402;51.466;6.806;2023-06-10T01:29:02;11.98;;;8.63;;
16579;SDS011;8402;51.466;6.806;2023-06-10T01:31:37;9.82;;;8.60;;
16579;SDS011;8402;51.466;6.806;2023-06-10T01:34:12;8.68;;;7.53;;
16579;SDS011;8402;51.466;6.806;2023-06-10T01:36:49;10.88;;;8.43;;
16579;SDS011;8402;51.466;6.806;2023-06-10T01:39:20;11.35;;;8.60;;
16579;SDS011;8402;51.466;6.806;2023-06-10T01:41:53;10.90;;;8.32;;
16579;SDS011;8402;51.466;6.806;2023-06-10T01:44:23;9.70;;;8.63;;
16579;SDS011;8402;51.466;6.806;2023-06-10T01:46:53;12.38;;;8.38;;
16579;SDS011;8402;51.466;6.806;2023-06-10T01:49:23;12.43;;;8.55;;
16579;SDS011;8402;51.466;6.806;2023-06-10T01:51:57;11.57;;;8.57;;
16579;SDS011;8402;51.466;6.806;2023-06-10T01:54:27;12.40;;;9.25;;
16579;SDS011;8402;51.466;6.806;2023-06-10T01:56:57;13.30;;;8.93;;
16579;SDS011;8402;51.466;6.806;2023-06-10T01:59:30;15.98;;;9.50;;
16579;SDS011;8402;51.466;6.806;2023-06-10T02:02:00;14.07;;;9.90;;
16579;SDS011;8402;51.466;6.806;2023-06-10T02:04:30;13.40;;;9.45;;
16579;SDS011;8402;51.466;6.806;2023-06-10T02:07:03;12.85;;;9.13;;
16579;SDS011;8402;51.466;6.806;2023-06-10T02:09:34;10.68;;;9.05;;
16579;SDS011;8402;51.466;6.806;2023-06-10T02:12:06;12.15;;;9.40;;
16579;SDS011;8402;51.466;6.806;2023-06-10T02:14:39;13.13;;;9.50;;
16579;SDS011;8402;51.466;6.806;2023-06-10T02:17:09;13.77;;;10.13;;
16579;SDS011;8402;51.466;6.806;2023-06-10T02:19:41;12.02;;;9.25;;
16579;SDS011;8402;51.466;6.806;2023-06-10T02:22:22;14.30;;;10.27;;
16579;SDS011;8402;51.466;6.806;2023-06-10T02:24:52;14.68;;;10.15;;
16579;SDS011;8402;51.466;6.806;2023-06-10T02:27:22;13.57;;;9.93;;
16579;SDS011;8402;51.466;6.806;2023-06-10T02:29:52;13.38;;;10.10;;
16579;SDS011;8402;51.466;6.806;2023-06-10T02:32:22;14.38;;;9.77;;
16579;SDS011;8402;51.466;6.806;2023-06-10T02:34:52;15.32;;;10.70;;
16579;SDS011;8402;51.466;6.806;2023-06-10T02:37:25;14.07;;;10.00;;
16579;SDS011;8402;51.466;6.806;2023-06-10T02:39:55;15.13;;;10.45;;
16579;SDS011;8402;51.466;6.806;2023-06-10T02:42:25;11.68;;;10.15;;
16579;SDS011;8402;51.466;6.806;2023-06-10T02:44:55;14.13;;;10.05;;
16579;SDS011;8402;51.466;6.806;2023-06-10T02:47:25;15.00;;;10.65;;
16579;SDS011;8402;51.466;6.806;2023-06-10T02:49:55;12.05;;;10.40;;
16579;SDS011;8402;51.466;6.806;2023-06-10T02:52:28;17.25;;;11.15;;
16579;SDS011;8402;51.466;6.806;2023-06-10T02:54:58;15.88;;;11.15;;
16579;SDS011;8402;51.466;6.806;2023-06-10T02:57:28;14.93;;;11.48;;
16579;SDS011;8402;51.466;6.806;2023-06-10T02:59:58;15.30;;;11.23;;
16579;SDS011;8402;51.466;6.806;2023-06-10T03:02:30;15.57;;;11.27;;
16579;SDS011;8402;51.466;6.806;2023-06-10T03:05:03;17.25;;;11.88;;
16579;SDS011;8402;51.466;6.806;2023-06-10T03:07:39;17.13;;;12.30;;
16579;SDS011;8402;51.466;6.806;2023-06-10T03:10:10;14.13;;;11.10;;
16579;SDS011;8402;51.466;6.806;2023-06-10T03:12:39;20.13;;;12.05;;
16579;SDS011;8402;51.466;6.806;2023-06-10T03:15:10;15.32;;;11.00;;
16579;SDS011;8402;51.466;6.806;2023-06-10T03:17:40;13.80;;;11.13;;
16579;SDS011;8402;51.466;6.806;2023-06-10T03:20:11;14.38;;;11.98;;
16579;SDS011;8402;51.466;6.806;2023-06-10T03:22:45;15.93;;;11.27;;
16579;SDS011;8402;51.466;6.806;2023-06-10T03:25:16;16.08;;;12.38;;
16579;SDS011;8402;51.466;6.806;2023-06-10T03:27:47;15.27;;;11.68;;
16579;SDS011;8402;51.466;6.806;2023-06-10T03:30:17;17.98;;;12.23;;
16579;SDS011;8402;51.466;6.806;2023-06-10T03:32:47;18.42;;;12.27;;
16579;SDS011;8402;51.466;6.806;2023-06-10T03:35:18;17.55;;;12.23;;
16579;SDS011;8402;51.466;6.806;2023-06-10T03:37:51;15.90;;;12.20;;
16579;SDS011;8402;51.466;6.806;2023-06-10T03:40:21;16.60;;;12.48;;
16579;SDS011;8402;51.466;6.806;2023-06-10T03:42:51;33.03;;;11.70;;
16579;SDS011;8402;51.466;6.806;2023-06-10T03:45:21;16.27;;;11.77;;
16579;SDS011;8402;51.466;6.806;2023-06-10T03:47:51;13.27;;;11.45;;
16579;SDS011;8402;51.466;6.806;2023-06-10T03:50:22;16.95;;;11.23;;
16579;SDS011;8402;51.466;6.806;2023-06-10T03:52:55;16.15;;;12.07;;
16579;SDS011;8402;51.466;6.806;2023-06-10T03:55:25;17.08;;;10.90;;
16579;SDS011;8402;51.466;6.806;2023-06-10T03:57:55;20.23;;;11.10;;
16579;SDS011;8402;51.466;6.806;2023-06-10T04:00:25;18.00;;;12.40;;
16579;SDS011;8402;51.466;6.806;2023-06-10T04:02:55;16.50;;;11.80;;
16579;SDS011;8402;51.466;6.806;2023-06-10T04:05:25;14.48;;;11.32;;
16579;SDS011;8402;51.466;6.806;2023-06-10T04:07:58;15.93;;;12.00;;
16579;SDS011;8402;51.466;6.806;2023-06-10T04:10:28;14.68;;;11.05;;
16579;SDS011;8402;51.466;6.806;2023-06-10T04:12:58;16.23;;;11.38;;
16579;SDS011;8402;51.466;6.806;2023-06-10T04:15:28;16.55;;;12.15;;
16579;SDS011;8402;51.466;6.806;2023-06-10T04:17:59;16.20;;;11.75;;
16579;SDS011;8402;51.466;6.806;2023-06-10T04:20:30;13.65;;;11.13;;
16579;SDS011;8402;51.466;6.806;2023-06-10T04:23:02;17.38;;;12.10;;
16579;SDS011;8402;51.466;6.806;2023-06-10T04:25:33;15.15;;;10.70;;
16579;SDS011;8402;51.466;6.806;2023-06-10T04:28:03;16.60;;;11.15;;
16579;SDS011;8402;51.466;6.806;2023-06-10T04:30:33;14.85;;;11.70;;
16579;SDS011;8402;51.466;6.806;2023-06-10T04:33:03;15.70;;;11.18;;
16579;SDS011;8402;51.466;6.806;2023-06-10T04:35:35;17.02;;;11.55;;
16579;SDS011;8402;51.466;6.806;2023-06-10T04:38:08;15.35;;;11.63;;
16579;SDS011;8402;51.466;6.806;2023-06-10T04:40:39;13.65;;;10.60;;
16579;SDS011;8402;51.466;6.806;2023-06-10T04:43:10;17.02;;;11.32;;
16579;SDS011;8402;51.466;6.806;2023-06-10T04:45:40;14.43;;;10.63;;
16579;SDS011;8402;51.466;6.806;2023-06-10T04:48:11;14.45;;;9.90;;
16579;SDS011;8402;51.466;6.806;2023-06-10T04:50:41;15.05;;;10.30;;
16579;SDS011;8402;51.466;6.806;2023-06-10T04:53:14;14.95;;;10.80;;
16579;SDS011;8402;51.466;6.806;2023-06-10T04:55:44;14.30;;;10.32;;
16579;SDS011;8402;51.466;6.806;2023-06-10T04:58:14;16.67;;;10.68;;
16579;SDS011;8402;51.466;6.806;2023-06-10T05:00:45;16.33;;;9.82;;
16579;SDS011;8402;51.466;6.806;2023-06-10T05:03:15;15.60;;;10.98;;
16579;SDS011;8402;51.466;6.806;2023-06-10T05:05:45;18.27;;;10.23;;
16579;SDS011;8402;51.466;6.806;2023-06-10T05:08:17;16.00;;;10.45;;
16579;SDS011;8402;51.466;6.806;2023-06-10T05:10:47;15.05;;;9.70;;
16579;SDS011;8402;51.466;6.806;2023-06-10T05:13:17;13.90;;;10.45;;
16579;SDS011;8402;51.466;6.806;2023-06-10T05:15:47;13.93;;;9.85;;
16579;SDS011;8402;51.466;6.806;2023-06-10T05:18:17;15.07;;;9.48;;
16579;SDS011;8402;51.466;6.806;2023-06-10T05:20:48;14.93;;;9.48;;
16579;SDS011;8402;51.466;6.806;2023-06-10T05:23:20;14.52;;;9.15;;
16579;SDS011;8402;51.466;6.806;2023-06-10T05:25:51;14.73;;;9.23;;
16579;SDS011;8402;51.466;6.806;2023-06-10T05:28:21;13.27;;;8.85;;
16579;SDS011;8402;51.466;6.806;2023-06-10T05:30:51;15.43;;;8.50;;
16579;SDS011;8402;51.466;6.806;2023-06-10T05:33:21;15.85;;;8.77;;
16579;SDS011;8402;51.466;6.806;2023-06-10T05:35:51;9.88;;;7.93;;
16579;SDS011;8402;51.466;6.806;2023-06-10T05:38:24;11.05;;;8.00;;
16579;SDS011;8402;51.466;6.806;2023-06-10T05:40:54;12.23;;;8.30;;
16579;SDS011;8402;51.466;6.806;2023-06-10T05:43:25;15.55;;;8.38;;
16579;SDS011;8402;51.466;6.806;2023-06-10T05:45:55;13.77;;;8.38;;
16579;SDS011;8402;51.466;6.806;2023-06-10T05:48:25;10.52;;;7.97;;
16579;SDS011;8402;51.466;6.806;2023-06-10T05:50:55;14.50;;;7.93;;
16579;SDS011;8402;51.466;6.806;2023-06-10T05:53:28;10.98;;;8.15;;
16579;SDS011;8402;51.466;6.806;2023-06-10T05:55:57;11.27;;;7.55;;
16579;SDS011;8402;51.466;6.806;2023-06-10T05:58:27;11.57;;;7.75;;
16579;SDS011;8402;51.466;6.806;2023-06-10T06:00:57;13.18;;;8.00;;
16579;SDS011;8402;51.466;6.806;2023-06-10T06:03:27;12.10;;;8.07;;
16579;SDS011;8402;51.466;6.806;2023-06-10T06:05:58;15.93;;;7.35;;
16579;SDS011;8402;51.466;6.806;2023-06-10T06:08:30;16.75;;;8.23;;
16579;SDS011;8402;51.466;6.806;2023-06-10T06:11:00;10.73;;;8.30;;
16579;SDS011;8402;51.466;6.806;2023-06-10T06:13:30;12.52;;;7.55;;
16579;SDS011;8402;51.466;6.806;2023-06-10T06:16:00;11.48;;;7.55;;
16579;SDS011;8402;51.466;6.806;2023-06-10T06:18:30;11.35;;;7.00;;
16579;SDS011;8402;51.466;6.806;2023-06-10T06:21:01;8.35;;;7.20;;
16579;SDS011;8402;51.466;6.806;2023-06-10T06:23:36;12.82;;;7.18;;
16579;SDS011;8402;51.466;6.806;2023-06-10T06:26:06;11.60;;;7.15;;
16579;SDS011;8402;51.466;6.806;2023-06-10T06:28:36;13.25;;;7.10;;
16579;SDS011;8402;51.466;6.806;2023-06-10T06:31:06;10.00;;;6.32;;
16579;SDS011;8402;51.466;6.806;2023-06-10T06:33:38;10.05;;;6.65;;
16579;SDS011;8402;51.466;6.806;2023-06-10T06:36:08;9.75;;;6.10;;
16579;SDS011;8402;51.466;6.806;2023-06-10T06:38:41;12.32;;;6.60;;
16579;SDS011;8402;51.466;6.806;2023-06-10T06:41:11;15.00;;;6.82;;
16579;SDS011;8402;51.466;6.806;2023-06-10T06:43:41;12.00;;;7.13;;
16579;SDS011;8402;51.466;6.806;2023-06-10T06:46:11;16.77;;;7.05;;
16579;SDS011;8402;51.466;6.806;2023-06-10T06:48:43;11.82;;;7.03;;
16579;SDS011;8402;51.466;6.806;2023-06-10T06:51:13;10.80;;;6.70;;
16579;SDS011;8402;51.466;6.806;2023-06-10T06:53:46;8.32;;;6.05;;
16579;SDS011;8402;51.466;6.806;2023-06-10T06:56:18;12.43;;;6.45;;
16579;SDS011;8402;51.466;6.806;2023-06-10T06:58:47;9.93;;;6.13;;
16579;SDS011;8402;51.466;6.806;2023-06-10T07:01:17;9.20;;;5.82;;
16579;SDS011;8402;51.466;6.806;2023-06-10T07:03:48;11.18;;;6.53;;
16579;SDS011;8402;51.466;6.806;2023-06-10T07:06:17;9.40;;;6.55;;
16579;SDS011;8402;51.466;6.806;2023-06-10T07:08:51;9.80;;;6.38;;
16579;SDS011;8402;51.466;6.806;2023-06-10T07:11:21;11.40;;;6.18;;
16579;SDS011;8402;51.466;6.806;2023-06-10T07:13:51;9.27;;;6.30;;
16579;SDS011;8402;51.466;6.806;2023-06-10T07:16:21;10.40;;;6.40;;
16579;SDS011;8402;51.466;6.806;2023-06-10T07:18:52;9.48;;;6.28;;
16579;SDS011;8402;51.466;6.806;2023-06-10T07:21:22;8.80;;;6.40;;
16579;SDS011;8402;51.466;6.806;2023-06-10T07:23:55;10.27;;;6.85;;
16579;SDS011;8402;51.466;6.806;2023-06-10T07:26:25;10.73;;;5.82;;
16579;SDS011;8402;51.466;6.806;2023-06-10T07:28:55;10.98;;;5.85;;
16579;SDS011;8402;51.466;6.806;2023-06-10T07:31:25;7.95;;;5.93;;
16579;SDS011;8402;51.466;6.806;2023-06-10T07:33:55;8.60;;;6.00;;
16579;SDS011;8402;51.466;6.806;2023-06-10T07:36:25;7.50;;;5.80;;
16579;SDS011;8402;51.466;6.806;2023-06-10T07:38:58;7.57;;;5.50;;
16579;SDS011;8402;51.466;6.806;2023-06-10T07:41:28;8.30;;;5.68;;
16579;SDS011;8402;51.466;6.806;2023-06-10T07:43:58;8.68;;;6.05;;
16579;SDS011;8402;51.466;6.806;2023-06-10T07:46:29;9.57;;;5.40;;
16579;SDS011;8402;51.466;6.806;2023-06-10T07:48:59;9.45;;;6.22;;
16579;SDS011;8402;51.466;6.806;2023-06-10T07:51:29;10.52;;;5.88;;
16579;SDS011;8402;51.466;6.806;2023-06-10T07:54:02;7.10;;;5.22;;
16579;SDS011;8402;51.466;6.806;2023-06-10T07:56:32;8.73;;;5.30;;
16579;SDS011;8402;51.466;6.806;2023-06-10T07:59:02;9.15;;;4.93;;
16579;SDS011;8402;51.466;6.806;2023-06-10T08:01:32;8.48;;;5.43;;
16579;SDS011;8402;51.466;6.806;2023-06-10T08:04:04;10.93;;;5.63;;
16579;SDS011;8402;51.466;6.806;2023-06-10T08:06:34;7.35;;;5.75;;
16579;SDS011;8402;51.466;6.806;2023-06-10T08:09:07;11.13;;;5.40;;
16579;SDS011;8402;51.466;6.806;2023-06-10T08:11:37;9.52;;;5.13;;
16579;SDS011;8402;51.466;6.806;2023-06-10T08:14:07;6.78;;;5.30;;
16579;SDS011;8402;51.466;6.806;2023-06-10T08:16:37;8.07;;;5.45;;
16579;SDS011;8402;51.466;6.806;2023-06-10T08:19:07;7.68;;;5.25;;
16579;SDS011;8402;51.466;6.806;2023-06-10T08:21:38;7.32;;;5.38;;
16579;SDS011;8402;51.466;6.806;2023-06-10T08:24:11;7.05;;;5.28;;
16579;SDS011;8402;51.466;6.806;2023-06-10T08:26:43;10.93;;;5.40;;
16579;SDS011;8402;51.466;6.806;2023-06-10T08:29:13;8.30;;;6.15;;
16579;SDS011;8402;51.466;6.806;2023-06-10T08:31:43;10.52;;;5.57;;
16579;SDS011;8402;51.466;6.806;2023-06-10T08:34:14;8.27;;;5.85;;
16579;SDS011;8402;51.466;6.806;2023-06-10T08:36:44;6.95;;;5.30;;
16579;SDS011;8402;51.466;6.806;2023-06-10T08:39:22;8.30;;;5.68;;
16579;SDS011;8402;51.466;6.806;2023-06-10T08:41:57;6.30;;;5.60;;
16579;SDS011;8402;51.466;6.806;2023-06-10T08:44:35;11.23;;;5.53;;
16579;SDS011;8402;51.466;6.806;2023-06-10T08:47:08;9.70;;;5.40;;
16579;SDS011;8402;51.466;6.806;2023-06-10T08:49:43;6.78;;;5.63;;
16579;SDS011;8402;51.466;6.806;2023-06-10T08:52:15;9.40;;;5.95;;
16579;SDS011;8402;51.466;6.806;2023-06-10T08:54:52;6.38;;;5.47;;
16579;SDS011;8402;51.466;6.806;2023-06-10T08:57:26;7.75;;;5.05;;
16579;SDS011;8402;51.466;6.806;2023-06-10T08:59:57;5.97;;;5.32;;
16579;SDS011;8402;51.466;6.806;2023-06-10T09:02:27;9.02;;;6.00;;
16579;SDS011;8402;51.466;6.806;2023-06-10T09:04:58;8.63;;;5.70;;
16579;SDS011;8402;51.466;6.806;2023-06-10T09:07:29;8.07;;;5.60;;
16579;SDS011;8402;51.466;6.806;2023-06-10T09:10:05;8.25;;;5.72;;
16579;SDS011;8402;51.466;6.806;2023-06-10T09:12:36;6.63;;;5.88;;
16579;SDS011;8402;51.466;6.806;2023-06-10T09:15:07;7.18;;;6.25;;
16579;SDS011;8402;51.466;6.806;2023-06-10T09:17:38;12.57;;;6.18;;
16579;SDS011;8402;51.466;6.806;2023-06-10T09:20:09;10.60;;;5.80;;
16579;SDS011;8402;51.466;6.806;2023-06-10T09:22:42;10.80;;;6.28;;
16579;SDS011;8402;51.466;6.806;2023-06-10T09:25:15;6.88;;;5.80;;
16579;SDS011;8402;51.466;6.806;2023-06-10T09:27:45;8.70;;;5.70;;
16579;SDS011;8402;51.466;6.806;2023-06-10T09:30:23;6.53;;;5.70;;
16579;SDS011;8402;51.466;6.806;2023-06-10T09:32:59;7.28;;;5.88;;
16579;SDS011;8402;51.466;6.806;2023-06-10T09:35:30;8.75;;;5.90;;
16579;SDS011;8402;51.466;6.806;2023-06-10T09:38:00;19.02;;;5.78;;
16579;SDS011;8402;51.466;6.806;2023-06-10T09:40:36;8.18;;;6.05;;
16579;SDS011;8402;51.466;6.806;2023-06-10T09:43:18;16.52;;;6.25;;
16579;SDS011;8402;51.466;6.806;2023-06-10T09:45:48;8.88;;;5.57;;
16579;SDS011;8402;51.466;6.806;2023-06-10T09:48:19;7.30;;;6.30;;
16579;SDS011;8402;51.466;6.806;2023-06-10T09:50:50;10.20;;;6.20;;
16579;SDS011;8402;51.466;6.806;2023-06-10T09:53:24;9.63;;;6.30;;
16579;SDS011;8402;51.466;6.806;2023-06-10T09:55:57;9.95;;;6.07;;
16579;SDS011;8402;51.466;6.806;2023-06-10T09:58:33;6.57;;;5.97;;
16579;SDS011;8402;51.466;6.806;2023-06-10T10:01:04;9.23;;;6.47;;
16579;SDS011;8402;51.466;6.806;2023-06-10T10:03:42;9.30;;;5.78;;
16579;SDS011;8402;51.466;6.806;2023-06-10T10:06:14;14.93;;;6.28;;
16579;SDS011;8402;51.466;6.806;2023-06-10T10:08:46;12.90;;;6.40;;
16579;SDS011;8402;51.466;6.806;2023-06-10T10:11:20;11.63;;;6.45;;
16579;SDS011;8402;51.466;6.806;2023-06-10T10:13:52;12.30;;;6.30;;
16579;SDS011;8402;51.466;6.806;2023-06-10T10:16:26;9.07;;;6.63;;
16579;SDS011;8402;51.466;6.806;2023-06-10T10:19:07;9.13;;;6.65;;
16579;SDS011;8402;51.466;6.806;2023-06-10T10:21:40;9.68;;;5.82;;
16579;SDS011;8402;51.466;6.806;2023-06-10T10:24:15;15.10;;;6.90;;
16579;SDS011;8402;51.466;6.806;2023-06-10T10:26:51;14.93;;;7.03;;
16579;SDS011;8402;51.466;6.806;2023-06-10T10:29:28;14.02;;;6.57;;
16579;SDS011;8402;51.466;6.806;2023-06-10T10:32:02;8.23;;;6.60;;
16579;SDS011;8402;51.466;6.806;2023-06-10T10:34:35;15.98;;;6.88;;
16579;SDS011;8402;51.466;6.806;2023-06-10T10:37:11;11.95;;;6.05;;
16579;SDS011;8402;51.466;6.806;2023-06-10T10:39:41;10.45;;;6.15;;
16579;SDS011;8402;51.466;6.806;2023-06-10T10:42:15;8.70;;;6.10;;
16579;SDS011;8402;51.466;6.806;2023-06-10T10:44:46;8.65;;;6.60;;
16579;SDS011;8402;51.466;6.806;2023-06-10T10:47:17;14.63;;;6.53;;
16579;SDS011;8402;51.466;6.806;2023-06-10T10:49:51;7.20;;;6.28;;
16579;SDS011;8402;51.466;6.806;2023-06-10T10:52:26;7.28;;;6.50;;
16579;SDS011;8402;51.466;6.806;2023-06-10T10:55:15;7.63;;;6.35;;
16579;SDS011;8402;51.466;6.806;2023-06-10T10:57:48;6.95;;;6.22;;
16579;SDS011;8402;51.466;6.806;2023-06-10T11:00:29;7.75;;;6.30;;
16579;SDS011;8402;51.466;6.806;2023-06-10T11:03:04;8.38;;;6.22;;
16579;SDS011;8402;51.466;6.806;2023-06-10T11:05:38;6.75;;;6.00;;
16579;SDS011;8402;51.466;6.806;2023-06-10T11:08:11;6.97;;;6.30;;
16579;SDS011;8402;51.466;6.806;2023-06-10T11:10:41;11.82;;;6.40;;
16579;SDS011;8402;51.466;6.806;2023-06-10T11:13:23;7.20;;;6.40;;
16579;SDS011;8402;51.466;6.806;2023-06-10T11:15:57;10.07;;;6.10;;
16579;SDS011;8402;51.466;6.806;2023-06-10T11:18:28;6.95;;;6.20;;
16579;SDS011;8402;51.466;6.806;2023-06-10T11:21:00;11.45;;;6.28;;
16579;SDS011;8402;51.466;6.806;2023-06-10T11:23:39;9.13;;;6.13;;
16579;SDS011;8402;51.466;6.806;2023-06-10T11:26:11;7.60;;;6.15;;
16579;SDS011;8402;51.466;6.806;2023-06-10T11:31:39;6.32;;;5.60;;
16579;SDS011;8402;51.466;6.806;2023-06-10T11:34:10;7.72;;;5.75;;
16579;SDS011;8402;51.466;6.806;2023-06-10T11:36:43;10.30;;;7.18;;
16579;SDS011;8402;51.466;6.806;2023-06-10T11:39:14;9.15;;;6.60;;
16579;SDS011;8402;51.466;6.806;2023-06-10T11:41:45;6.65;;;6.05;;
16579;SDS011;8402;51.466;6.806;2023-06-10T11:44:17;7.70;;;6.22;;
16579;SDS011;8402;51.466;6.806;2023-06-10T11:46:48;8.73;;;6.30;;
16579;SDS011;8402;51.466;6.806;2023-06-10T11:49:20;9.30;;;6.47;;
16579;SDS011;8402;51.466;6.806;2023-06-10T11:51:50;9.63;;;6.47;;
16579;SDS011;8402;51.466;6.806;2023-06-10T11:54:21;11.32;;;6.47;;
16579;SDS011;8402;51.466;6.806;2023-06-10T11:56:56;11.60;;;6.25;;
16579;SDS011;8402;51.466;6.806;2023-06-10T11:59:29;10.73;;;6.10;;
16579;SDS011;8402;51.466;6.806;2023-06-10T12:01:59;20.40;;;7.32;;
16579;SDS011;8402;51.466;6.806;2023-06-10T12:04:29;9.38;;;6.18;;
16579;SDS011;8402;51.466;6.806;2023-06-10T12:06:59;12.48;;;6.75;;
16579;SDS011;8402;51.466;6.806;2023-06-10T12:09:29;8.98;;;6.70;;
16579;SDS011;8402;51.466;6.806;2023-06-10T12:12:00;8.30;;;6.18;;
16579;SDS011;8402;51.466;6.806;2023-06-10T12:17:35;7.00;;;6.30;;
16579;SDS011;8402;51.466;6.806;2023-06-10T12:20:06;8.18;;;6.43;;
16579;SDS011;8402;51.466;6.806;2023-06-10T12:22:38;7.20;;;6.45;;
16579;SDS011;8402;51.466;6.806;2023-06-10T12:25:09;8.52;;;6.60;;
16579;SDS011;8402;51.466;6.806;2023-06-10T12:27:49;8.32;;;6.70;;
16579;SDS011;8402;51.466;6.806;2023-06-10T12:30:24;9.95;;;6.40;;
16579;SDS011;8402;51.466;6.806;2023-06-10T12:32:55;9.27;;;6.53;;
16579;SDS011;8402;51.466;6.806;2023-06-10T12:35:26;6.88;;;6.20;;
16579;SDS011;8402;51.466;6.806;2023-06-10T12:37:58;8.95;;;6.50;;
16579;SDS011;8402;51.466;6.806;2023-06-10T12:40:31;7.05;;;6.30;;
16579;SDS011;8402;51.466;6.806;2023-06-10T12:43:03;8.07;;;6.75;;
16579;SDS011;8402;51.466;6.806;2023-06-10T12:45:36;7.47;;;6.65;;
16579;SDS011;8402;51.466;6.806;2023-06-10T12:48:10;7.88;;;6.82;;
16579;SDS011;8402;51.466;6.806;2023-06-10T12:50:41;8.00;;;6.15;;
16579;SDS011;8402;51.466;6.806;2023-06-10T12:53:11;22.50;;;7.60;;
16579;SDS011;8402;51.466;6.806;2023-06-10T12:55:42;9.65;;;6.72;;
16579;SDS011;8402;51.466;6.806;2023-06-10T12:58:12;11.65;;;6.95;;
16579;SDS011;8402;51.466;6.806;2023-06-10T13:00:45;13.25;;;7.03;;
16579;SDS011;8402;51.466;6.806;2023-06-10T13:03:15;8.75;;;6.45;;
16579;SDS011;8402;51.466;6.806;2023-06-10T13:05:45;7.18;;;6.50;;
16579;SDS011;8402;51.466;6.806;2023-06-10T13:08:15;9.00;;;7.35;;
16579;SDS011;8402;51.466;6.806;2023-06-10T13:10:45;7.13;;;6.43;;
16579;SDS011;8402;51.466;6.806;2023-06-10T13:13:15;7.78;;;7.00;;
16579;SDS011;8402;51.466;6.806;2023-06-10T13:15:48;7.72;;;6.95;;
16579;SDS011;8402;51.466;6.806;2023-06-10T13:18:18;7.53;;;6.70;;
16579;SDS011;8402;51.466;6.806;2023-06-10T13:20:48;7.38;;;6.68;;
16579;SDS011;8402;51.466;6.806;2023-06-10T13:23:18;8.60;;;6.93;;
16579;SDS011;8402;51.466;6.806;2023-06-10T13:25:48;7.95;;;7.15;;
16579;SDS011;8402;51.466;6.806;2023-06-10T13:28:18;8.43;;;6.63;;
16579;SDS011;8402;51.466;6.806;2023-06-10T13:30:51;7.00;;;6.40;;
16579;SDS011;8402;51.466;6.806;2023-06-10T13:33:21;8.82;;;7.30;;
16579;SDS011;8402;51.466;6.806;2023-06-10T13:35:53;7.03;;;6.32;;
16579;SDS011;8402;51.466;6.806;2023-06-10T13:38:23;7.38;;;6.57;;
16579;SDS011;8402;51.466;6.806;2023-06-10T13:40:53;8.02;;;6.72;;
16579;SDS011;8402;51.466;6.806;2023-06-10T13:43:23;7.80;;;7.10;;
16579;SDS011;8402;51.466;6.806;2023-06-10T13:45:55;9.63;;;7.20;;
16579;SDS011;8402;51.466;6.806;2023-06-10T13:48:25;8.85;;;6.88;;
16579;SDS011;8402;51.466;6.806;2023-06-10T13:50:55;7.05;;;6.38;;
16579;SDS011;8402;51.466;6.806;2023-06-10T13:53:26;7.82;;;7.00;;
16579;SDS011;8402;51.466;6.806;2023-06-10T13:55:56;7.03;;;6.40;;
16579;SDS011;8402;51.466;6.806;2023-06-10T13:58:26;7.72;;;6.90;;
16579;SDS011;8402;51.466;6.806;2023-06-10T14:00:59;7.63;;;6.80;;
16579;SDS011;8402;51.466;6.806;2023-06-10T14:03:29;13.18;;;6.80;;
16579;SDS011;8402;51.466;6.806;2023-06-10T14:05:59;8.23;;;6.55;;
16579;SDS011;8402;51.466;6.806;2023-06-10T14:08:29;7.60;;;6.10;;
16579;SDS011;8402;51.466;6.806;2023-06-10T14:10:59;6.80;;;6.20;;
16579;SDS011;8402;51.466;6.806;2023-06-10T14:13:29;7.60;;;6.93;;
16579;SDS011;8402;51.466;6.806;2023-06-10T14:16:03;7.95;;;6.75;;
16579;SDS011;8402;51.466;6.806;2023-06-10T14:18:33;7.63;;;6.85;;
16579;SDS011;8402;51.466;6.806;2023-06-10T14:21:03;7.75;;;6.32;;
16579;SDS011;8402;51.466;6.806;2023-06-10T14:23:33;6.97;;;6.28;;
16579;SDS011;8402;51.466;6.806;2023-06-10T14:26:03;7.60;;;6.80;;
16579;SDS011;8402;51.466;6.806;2023-06-10T14:28:34;6.88;;;6.20;;
16579;SDS011;8402;51.466;6.806;2023-06-10T14:31:06;6.97;;;6.07;;
16579;SDS011;8402;51.466;6.806;2023-06-10T14:33:37;7.35;;;6.70;;
16579;SDS011;8402;51.466;6.806;2023-06-10T14:36:09;8.68;;;6.47;;
16579;SDS011;8402;51.466;6.806;2023-06-10T14:38:39;7.53;;;6.68;;
16579;SDS011;8402;51.466;6.806;2023-06-10T14:41:09;9.50;;;6.97;;
16579;SDS011;8402;51.466;6.806;2023-06-10T14:43:39;6.85;;;6.25;;
16579;SDS011;8402;51.466;6.806;2023-06-10T14:46:12;23.52;;;7.43;;
16579;SDS011;8402;51.466;6.806;2023-06-10T14:48:43;20.25;;;7.25;;
16579;SDS011;8402;51.466;6.806;2023-06-10T14:51:13;7.15;;;6.45;;
16579;SDS011;8402;51.466;6.806;2023-06-10T14:53:43;8.45;;;6.63;;
16579;SDS011;8402;51.466;6.806;2023-06-10T14:56:13;7.80;;;6.60;;
16579;SDS011;8402;51.466;6.806;2023-06-10T14:58:46;6.93;;;6.32;;
16579;SDS011;8402;51.466;6.806;2023-06-10T15:01:18;7.38;;;6.60;;
16579;SDS011;8402;51.466;6.806;2023-06-10T15:03:48;6.50;;;5.90;;
16579;SDS011;8402;51.466;6.806;2023-06-10T15:06:18;6.88;;;6.18;;
16579;SDS011;8402;51.466;6.806;2023-06-10T15:08:49;7.93;;;6.72;;
16579;SDS011;8402;51.466;6.806;2023-06-10T15:11:21;7.22;;;6.43;;
16579;SDS011;8402;51.466;6.806;2023-06-10T15:13:51;9.00;;;6.65;;
16579;SDS011;8402;51.466;6.806;2023-06-10T15:16:23;8.15;;;6.53;;
16579;SDS011;8402;51.466;6.806;2023-06-10T15:18:53;11.05;;;7.00;;
16579;SDS011;8402;51.466;6.806;2023-06-10T15:21:24;8.55;;;6.72;;
16579;SDS011;8402;51.466;6.806;2023-06-10T15:23:54;14.82;;;6.80;;